createdAt,value
2023-03-03T00:00:38.354Z,99.99
2023-03-03T00:01:38.382Z,99.99
2023-03-03T00:02:38.473Z,99.99
2023-03-03T00:03:38.391Z,99.99
2023-03-03T00:04:38.334Z,99.99
2023-03-03T00:05:38.337Z,99.99
2023-03-03T00:06:38.290Z,99.99
2023-03-03T00:07:38.343Z,99.99
2023-03-03T00:08:38.281Z,99.99
2023-03-03T00:09:38.280Z,99.99
2023-03-03T00:10:38.300Z,99.99
2023-03-03T00:11:38.246Z,99.99
2023-03-03T00:12:38.237Z,99.99
2023-03-03T00:13:38.297Z,99.99
2023-03-03T00:14:38.212Z,99.99
2023-03-03T00:15:38.233Z,99.99
2023-03-03T00:16:38.222Z,99.99
2023-03-03T00:17:38.184Z,99.99
2023-03-03T00:18:38.170Z,99.99
2023-03-03T00:19:38.283Z,99.99
2023-03-03T00:20:38.185Z,99.99
2023-03-03T00:21:38.185Z,99.99
2023-03-03T00:22:38.207Z,99.99
2023-03-03T00:23:38.156Z,99.99
2023-03-03T00:24:38.131Z,99.99
2023-03-03T00:25:38.106Z,99.99
2023-03-03T00:26:38.118Z,99.99
2023-03-03T00:27:38.080Z,99.99
2023-03-03T00:28:38.081Z,99.99
2023-03-03T00:29:38.074Z,99.99
2023-03-03T00:30:38.060Z,99.99
2023-03-03T00:31:38.059Z,99.99
2023-03-03T00:32:38.025Z,99.99
2023-03-03T00:33:38.103Z,99.99
2023-03-03T00:34:38.005Z,99.99
2023-03-03T00:35:38.066Z,99.99
2023-03-03T00:36:38.014Z,99.99
2023-03-03T00:37:38.294Z,99.99
2023-03-03T00:38:38.018Z,99.99
2023-03-03T00:39:38.010Z,99.99
2023-03-03T00:40:38.008Z,99.99
2023-03-03T00:41:37.942Z,99.99
2023-03-03T00:42:37.942Z,99.99
2023-03-03T00:43:37.926Z,99.99
2023-03-03T00:44:37.931Z,99.99
2023-03-03T00:45:37.922Z,99.99
2023-03-03T00:46:37.889Z,99.99
2023-03-03T00:47:37.917Z,99.99
2023-03-03T00:48:37.868Z,99.99
2023-03-03T00:49:37.941Z,99.99
2023-03-03T00:50:37.873Z,99.99
2023-03-03T00:51:37.829Z,99.99
2023-03-03T00:52:37.819Z,99.99
2023-03-03T00:53:37.830Z,99.99
2023-03-03T00:54:37.805Z,99.99
2023-03-03T00:55:37.827Z,99.99
2023-03-03T00:56:37.847Z,99.99
2023-03-03T00:57:37.766Z,99.99
2023-03-03T00:58:37.752Z,99.99
2023-03-03T00:59:37.741Z,99.99
2023-03-03T01:00:37.730Z,99.99
2023-03-03T01:01:37.787Z,99.99
2023-03-03T01:02:37.872Z,99.99
2023-03-03T01:03:37.736Z,99.99
2023-03-03T01:04:37.695Z,99.99
2023-03-03T01:05:37.684Z,99.99
2023-03-03T01:06:37.680Z,99.99
2023-03-03T01:07:37.680Z,99.99
2023-03-03T01:08:37.772Z,99.99
2023-03-03T01:09:37.676Z,99.99
2023-03-03T01:10:37.660Z,99.99
2023-03-03T01:11:37.663Z,99.99
2023-03-03T01:12:37.608Z,99.99
2023-03-03T01:13:38.144Z,99.99
2023-03-03T01:14:37.655Z,99.99
2023-03-03T01:15:37.573Z,99.99
2023-03-03T01:16:42.293Z,99.99
2023-03-03T01:17:37.578Z,99.99
2023-03-03T01:18:37.568Z,99.99
2023-03-03T01:19:37.600Z,99.99
2023-03-03T01:20:37.584Z,99.99
2023-03-03T01:21:37.536Z,99.99
2023-03-03T01:22:37.535Z,99.99
2023-03-03T01:23:37.502Z,99.99
2023-03-03T01:24:37.507Z,99.99
2023-03-03T01:25:37.611Z,99.99
2023-03-03T01:26:37.497Z,99.99
2023-03-03T01:27:37.557Z,99.99
2023-03-03T01:28:37.440Z,99.99
2023-03-03T01:29:37.438Z,99.99
2023-03-03T01:30:37.432Z,99.99
2023-03-03T01:31:37.557Z,99.99
2023-03-03T01:32:37.401Z,99.99
2023-03-03T01:33:37.418Z,99.99
2023-03-03T01:34:37.379Z,99.99
2023-03-03T01:35:37.398Z,99.99
2023-03-03T01:36:37.373Z,99.99
2023-03-03T01:37:37.373Z,99.99
2023-03-03T01:38:37.335Z,99.99
2023-03-03T01:39:37.327Z,99.99
2023-03-03T01:40:37.325Z,99.99
2023-03-03T01:41:37.312Z,99.99
2023-03-03T01:42:37.302Z,99.99
2023-03-03T01:43:37.340Z,99.99
2023-03-03T01:44:37.274Z,99.99
2023-03-03T01:45:37.301Z,99.99
2023-03-03T01:46:37.321Z,99.99
2023-03-03T01:47:37.328Z,99.99
2023-03-03T01:48:37.774Z,99.99
2023-03-03T01:49:37.276Z,99.99
2023-03-03T01:50:37.218Z,99.99
2023-03-03T01:51:37.266Z,99.99
2023-03-03T01:52:37.337Z,99.99
2023-03-03T01:53:37.182Z,99.99
2023-03-03T01:54:37.171Z,99.99
2023-03-03T01:55:37.155Z,99.99
2023-03-03T01:56:37.153Z,99.99
2023-03-03T01:57:37.217Z,99.99
2023-03-03T01:58:37.132Z,99.99
2023-03-03T01:59:37.172Z,99.99
2023-03-03T02:00:37.122Z,99.99
2023-03-03T02:01:37.148Z,99.99
2023-03-03T02:02:37.102Z,99.99
2023-03-03T02:03:37.119Z,99.99
2023-03-03T02:04:37.086Z,99.99
2023-03-03T02:05:37.069Z,99.99
2023-03-03T02:06:37.046Z,99.99
2023-03-03T02:07:37.042Z,99.99
2023-03-03T02:08:37.078Z,99.99
2023-03-03T02:09:37.016Z,99.99
2023-03-03T02:10:37.070Z,99.99
2023-03-03T02:11:37.000Z,99.99
2023-03-03T02:12:36.990Z,99.99
2023-03-03T02:13:37.014Z,99.99
2023-03-03T02:14:36.968Z,99.99
2023-03-03T02:15:36.982Z,99.99
2023-03-03T02:16:36.950Z,99.99
2023-03-03T02:17:36.960Z,99.99
2023-03-03T02:18:36.931Z,99.99
2023-03-03T02:19:36.947Z,99.99
2023-03-03T02:20:36.909Z,99.99
2023-03-03T02:21:36.919Z,99.99
2023-03-03T02:22:36.972Z,99.99
2023-03-03T02:23:36.904Z,99.99
2023-03-03T02:24:36.876Z,99.99
2023-03-03T02:25:36.871Z,99.99
2023-03-03T02:26:36.937Z,99.99
2023-03-03T02:27:36.837Z,99.99
2023-03-03T02:28:36.826Z,99.99
2023-03-03T02:29:36.830Z,99.99
2023-03-03T02:30:36.803Z,99.99
2023-03-03T02:31:36.846Z,99.99
2023-03-03T02:32:36.840Z,99.99
2023-03-03T02:33:36.775Z,99.99
2023-03-03T02:34:36.769Z,99.99
2023-03-03T02:35:36.794Z,99.99
2023-03-03T02:36:36.752Z,99.99
2023-03-03T02:37:36.780Z,99.99
2023-03-03T02:38:36.759Z,99.99
2023-03-03T02:39:36.801Z,99.99
2023-03-03T02:40:36.734Z,99.99
2023-03-03T02:41:36.693Z,99.99
2023-03-03T02:42:36.707Z,99.99
2023-03-03T02:43:36.671Z,99.99
2023-03-03T02:44:36.665Z,99.99
2023-03-03T02:45:36.716Z,99.99
2023-03-03T02:46:36.669Z,99.99
2023-03-03T02:47:36.653Z,99.99
2023-03-03T02:48:36.612Z,99.99
2023-03-03T02:49:36.614Z,99.99
2023-03-03T02:50:36.623Z,99.99
2023-03-03T02:51:36.594Z,99.99
2023-03-03T02:52:36.588Z,99.99
2023-03-03T02:53:36.572Z,99.99
2023-03-03T02:54:36.550Z,99.99
2023-03-03T02:55:36.566Z,99.99
2023-03-03T02:56:36.541Z,99.99
2023-03-03T02:57:36.524Z,99.99
2023-03-03T02:58:36.540Z,99.99
2023-03-03T02:59:36.506Z,99.99
2023-03-03T03:00:36.558Z,99.99
2023-03-03T03:01:36.493Z,99.99
2023-03-03T03:02:36.469Z,99.99
2023-03-03T03:03:36.489Z,99.99
2023-03-03T03:04:36.544Z,99.99
2023-03-03T03:05:36.456Z,99.99
2023-03-03T03:06:36.503Z,99.99
2023-03-03T03:07:36.481Z,99.99
2023-03-03T03:08:36.462Z,99.99
2023-03-03T03:09:36.390Z,99.99
2023-03-03T03:10:36.387Z,99.99
2023-03-03T03:11:36.384Z,99.99
2023-03-03T03:12:36.377Z,99.99
2023-03-03T03:13:36.377Z,99.99
2023-03-03T03:14:36.388Z,99.99
2023-03-03T03:15:36.336Z,99.99
2023-03-03T03:16:36.398Z,99.99
2023-03-03T03:17:36.358Z,99.99
2023-03-03T03:18:36.332Z,99.99
2023-03-03T03:19:36.330Z,99.99
2023-03-03T03:20:36.299Z,99.99
2023-03-03T03:21:36.305Z,99.99
2023-03-03T03:22:36.283Z,99.99
2023-03-03T03:23:36.285Z,99.99
2023-03-03T03:24:36.306Z,99.99
2023-03-03T03:25:36.221Z,99.99
2023-03-03T03:26:36.246Z,99.99
2023-03-03T03:27:36.262Z,99.99
2023-03-03T03:28:36.286Z,99.99
2023-03-03T03:29:36.267Z,99.99
2023-03-03T03:30:36.252Z,99.99
2023-03-03T03:31:36.167Z,99.99
2023-03-03T03:32:37.182Z,99.99
2023-03-03T03:33:36.144Z,99.99
2023-03-03T03:34:36.176Z,99.99
2023-03-03T03:35:36.192Z,99.99
2023-03-03T03:36:36.118Z,99.99
2023-03-03T03:37:36.098Z,99.99
2023-03-03T03:38:36.099Z,99.99
2023-03-03T03:39:36.196Z,99.99
2023-03-03T03:40:36.102Z,99.99
2023-03-03T03:41:36.075Z,99.99
2023-03-03T03:42:36.083Z,99.99
2023-03-03T03:43:36.064Z,99.99
2023-03-03T03:44:36.045Z,99.99
2023-03-03T03:45:36.131Z,99.99
2023-03-03T03:46:36.014Z,99.99
2023-03-03T03:47:36.062Z,99.99
2023-03-03T03:48:35.999Z,99.99
2023-03-03T03:49:35.979Z,99.99
2023-03-03T03:50:35.968Z,99.99
2023-03-03T03:51:35.981Z,99.99
2023-03-03T03:52:35.941Z,99.99
2023-03-03T03:53:35.946Z,99.99
2023-03-03T03:54:35.940Z,99.99
2023-03-03T03:55:35.941Z,99.99
2023-03-03T03:56:35.920Z,99.99
2023-03-03T03:57:35.907Z,99.99
2023-03-03T03:58:35.944Z,99.99
2023-03-03T03:59:35.872Z,99.99
2023-03-03T04:00:35.888Z,99.99
2023-03-03T04:01:35.899Z,99.99
2023-03-03T04:02:35.966Z,99.99
2023-03-03T04:03:35.862Z,99.99
2023-03-03T04:04:35.826Z,99.99
2023-03-03T04:05:35.859Z,99.99
2023-03-03T04:06:35.878Z,99.99
2023-03-03T04:07:35.821Z,99.99
2023-03-03T04:08:35.795Z,99.99
2023-03-03T04:09:35.881Z,99.99
2023-03-03T04:10:35.774Z,99.99
2023-03-03T04:11:35.832Z,99.99
2023-03-03T04:12:35.772Z,99.99
2023-03-03T04:13:35.730Z,99.99
2023-03-03T04:14:35.765Z,99.99
2023-03-03T04:15:35.744Z,99.99
2023-03-03T04:16:35.709Z,99.99
2023-03-03T04:17:35.731Z,99.99
2023-03-03T04:18:35.718Z,99.99
2023-03-03T04:19:35.683Z,99.99
2023-03-03T04:20:43.242Z,99.99
2023-03-03T04:21:35.670Z,99.99
2023-03-03T04:22:35.665Z,99.99
2023-03-03T04:23:35.721Z,99.99
2023-03-03T04:24:35.619Z,99.99
2023-03-03T04:25:35.603Z,99.99
2023-03-03T04:26:35.664Z,99.99
2023-03-03T04:27:35.660Z,99.99
2023-03-03T04:28:35.592Z,99.99
2023-03-03T04:29:35.608Z,99.99
2023-03-03T04:30:35.667Z,99.99
2023-03-03T04:31:35.549Z,99.99
2023-03-03T04:32:35.531Z,99.99
2023-03-03T04:33:35.525Z,99.99
2023-03-03T04:34:35.512Z,99.99
2023-03-03T04:35:35.545Z,99.99
2023-03-03T04:36:35.547Z,99.99
2023-03-03T04:37:35.481Z,99.99
2023-03-03T04:38:35.516Z,99.99
2023-03-03T04:39:35.485Z,99.99
2023-03-03T04:40:35.472Z,99.99
2023-03-03T04:41:35.447Z,99.99
2023-03-03T04:42:35.451Z,99.99
2023-03-03T04:43:35.434Z,99.99
2023-03-03T04:44:35.482Z,99.99
2023-03-03T04:45:35.413Z,99.99
2023-03-03T04:46:35.496Z,99.99
2023-03-03T04:47:35.388Z,99.99
2023-03-03T04:48:35.487Z,99.99
2023-03-03T04:49:35.368Z,99.99
2023-03-03T04:50:35.366Z,99.99
2023-03-03T04:51:35.330Z,99.99
2023-03-03T04:52:35.345Z,99.99
2023-03-03T04:53:35.342Z,99.99
2023-03-03T04:54:35.318Z,99.99
2023-03-03T04:55:35.318Z,99.99
2023-03-03T04:56:35.323Z,99.99
2023-03-03T04:57:35.299Z,99.99
2023-03-03T04:58:35.273Z,99.99
2023-03-03T04:59:35.259Z,99.99
2023-03-03T05:00:35.282Z,99.99
2023-03-03T05:01:35.265Z,99.99
2023-03-03T05:02:35.230Z,99.99
2023-03-03T05:03:35.232Z,99.99
2023-03-03T05:04:35.247Z,99.99
2023-03-03T05:05:35.188Z,99.99
2023-03-03T05:06:35.231Z,99.99
2023-03-03T05:07:35.176Z,99.99
2023-03-03T05:08:35.184Z,99.99
2023-03-03T05:09:35.141Z,99.99
2023-03-03T05:10:35.284Z,99.99
2023-03-03T05:11:35.162Z,99.99
2023-03-03T05:12:35.193Z,99.99
2023-03-03T05:13:35.158Z,99.99
2023-03-03T05:14:35.132Z,99.99
2023-03-03T05:15:35.099Z,99.99
2023-03-03T05:16:39.873Z,99.99
2023-03-03T05:17:35.067Z,99.99
2023-03-03T05:18:35.061Z,99.99
2023-03-03T05:19:35.037Z,99.99
2023-03-03T05:20:35.028Z,99.99
2023-03-03T05:21:37.491Z,99.99
2023-03-03T05:22:35.033Z,99.99
2023-03-03T05:23:35.002Z,99.99
2023-03-03T05:24:35.024Z,99.99
2023-03-03T05:25:35.000Z,99.99
2023-03-03T05:26:34.990Z,99.99
2023-03-03T05:27:35.024Z,99.99
2023-03-03T05:28:34.969Z,99.99
2023-03-03T05:29:34.933Z,99.99
2023-03-03T05:30:34.918Z,99.99
2023-03-03T05:31:35.065Z,99.99
2023-03-03T05:32:34.974Z,99.99
2023-03-03T05:33:34.962Z,99.99
2023-03-03T05:34:34.891Z,99.99
2023-03-03T05:35:34.897Z,99.99
2023-03-03T05:36:34.859Z,99.99
2023-03-03T05:37:34.873Z,99.99
2023-03-03T05:38:34.900Z,99.99
2023-03-03T05:39:34.875Z,99.99
2023-03-03T05:40:34.827Z,99.99
2023-03-03T05:41:34.809Z,99.99
2023-03-03T05:42:34.912Z,99.99
2023-03-03T05:43:34.799Z,99.99
2023-03-03T05:44:34.784Z,99.99
2023-03-03T05:45:34.783Z,99.99
2023-03-03T05:46:34.820Z,99.99
2023-03-03T05:47:34.772Z,99.99
2023-03-03T05:48:34.726Z,99.99
2023-03-03T05:49:34.750Z,99.99
2023-03-03T05:50:34.730Z,99.99
2023-03-03T05:51:34.701Z,99.99
2023-03-03T05:52:34.749Z,99.99
2023-03-03T05:53:34.689Z,99.99
2023-03-03T05:54:34.860Z,99.99
2023-03-03T05:55:34.679Z,99.99
2023-03-03T05:56:34.691Z,99.99
2023-03-03T05:57:34.679Z,99.99
2023-03-03T05:58:34.724Z,99.99
2023-03-03T05:59:34.649Z,99.99
2023-03-03T06:00:34.604Z,99.99
2023-03-03T06:01:34.620Z,99.99
2023-03-03T06:02:34.761Z,99.99
2023-03-03T06:03:34.577Z,99.99
2023-03-03T06:04:34.588Z,99.99
2023-03-03T06:05:34.554Z,99.99
2023-03-03T06:06:34.559Z,99.99
2023-03-03T06:07:34.552Z,99.99
2023-03-03T06:08:34.556Z,99.99
2023-03-03T06:09:34.535Z,99.99
2023-03-03T06:10:34.540Z,99.99
2023-03-03T06:11:34.500Z,99.99
2023-03-03T06:12:34.527Z,99.99
2023-03-03T06:13:34.483Z,99.99
2023-03-03T06:14:34.461Z,99.99
2023-03-03T06:15:34.498Z,99.99
2023-03-03T06:16:34.472Z,99.99
2023-03-03T06:17:34.454Z,99.99
2023-03-03T06:18:34.455Z,99.99
2023-03-03T06:19:34.411Z,99.99
2023-03-03T06:20:34.403Z,99.99
2023-03-03T06:21:34.389Z,99.99
2023-03-03T06:22:34.411Z,99.99
2023-03-03T06:23:34.457Z,99.99
2023-03-03T06:24:34.380Z,99.99
2023-03-03T06:25:34.396Z,99.99
2023-03-03T06:26:34.339Z,99.99
2023-03-03T06:27:34.347Z,99.99
2023-03-03T06:28:34.342Z,99.99
2023-03-03T06:29:34.348Z,99.99
2023-03-03T06:30:34.305Z,99.99
2023-03-03T06:31:34.348Z,99.99
2023-03-03T06:32:34.310Z,99.99
2023-03-03T06:33:34.260Z,99.99
2023-03-03T06:34:34.284Z,99.99
2023-03-03T06:35:34.289Z,99.99
2023-03-03T06:36:34.242Z,99.90
2023-03-03T06:37:34.235Z,99.90
2023-03-03T06:38:34.288Z,99.80
2023-03-03T06:39:34.202Z,99.69
2023-03-03T06:40:34.188Z,99.59
2023-03-03T06:41:34.189Z,99.38
2023-03-03T06:42:34.187Z,99.48
2023-03-03T06:43:34.163Z,99.27
2023-03-03T06:44:34.363Z,99.07
2023-03-03T06:45:34.212Z,99.07
2023-03-03T06:46:34.139Z,99.07
2023-03-03T06:47:34.137Z,98.96
2023-03-03T06:48:34.126Z,98.96
2023-03-03T06:49:34.155Z,98.86
2023-03-03T06:50:34.106Z,98.86
2023-03-03T06:51:34.111Z,98.86
2023-03-03T06:52:34.117Z,98.75
2023-03-03T06:53:34.058Z,98.75
2023-03-03T06:54:34.044Z,98.75
2023-03-03T06:55:34.828Z,98.65
2023-03-03T06:56:34.021Z,98.44
2023-03-03T06:57:34.038Z,98.55
2023-03-03T06:58:34.016Z,98.55
2023-03-03T06:59:34.008Z,98.34
2023-03-03T07:00:33.989Z,98.23
2023-03-03T07:01:33.971Z,98.13
2023-03-03T07:02:33.971Z,98.02
2023-03-03T07:03:34.006Z,98.13
2023-03-03T07:04:34.070Z,98.02
2023-03-03T07:05:33.929Z,98.02
2023-03-03T07:06:33.925Z,97.98
2023-03-03T07:07:33.916Z,97.98
2023-03-03T07:08:33.910Z,97.77
2023-03-03T07:09:34.383Z,97.50
2023-03-03T07:10:33.890Z,97.67
2023-03-03T07:11:33.874Z,97.67
2023-03-03T07:12:33.862Z,97.35
2023-03-03T07:13:33.929Z,97.30
2023-03-03T07:14:33.913Z,97.50
2023-03-03T07:15:33.898Z,97.50
2023-03-03T07:16:33.869Z,97.40
2023-03-03T07:17:33.818Z,97.40
2023-03-03T07:18:33.879Z,97.61
2023-03-03T07:19:33.822Z,97.61
2023-03-03T07:20:33.811Z,97.56
2023-03-03T07:21:33.808Z,97.56
2023-03-03T07:22:33.788Z,97.46
2023-03-03T07:23:33.754Z,97.25
2023-03-03T07:24:33.780Z,97.14
2023-03-03T07:25:33.737Z,97.14
2023-03-03T07:26:33.767Z,96.73
2023-03-03T07:27:33.716Z,96.94
2023-03-03T07:28:33.741Z,96.73
2023-03-03T07:29:33.696Z,96.52
2023-03-03T07:30:33.799Z,96.73
2023-03-03T07:31:33.706Z,96.73
2023-03-03T07:32:33.715Z,96.42
2023-03-03T07:33:33.648Z,96.46
2023-03-03T07:34:33.680Z,96.46
2023-03-03T07:35:33.689Z,96.67
2023-03-03T07:36:33.624Z,96.67
2023-03-03T07:37:33.611Z,96.67
2023-03-03T07:38:33.629Z,96.77
2023-03-03T07:39:33.605Z,96.83
2023-03-03T07:40:33.606Z,96.73
2023-03-03T07:41:33.594Z,96.73
2023-03-03T07:42:33.559Z,96.52
2023-03-03T07:43:33.600Z,96.62
2023-03-03T07:44:33.548Z,96.73
2023-03-03T07:45:33.537Z,96.62
2023-03-03T07:46:33.676Z,96.62
2023-03-03T07:47:33.513Z,96.52
2023-03-03T07:48:33.502Z,96.31
2023-03-03T07:49:33.567Z,96.11
2023-03-03T07:50:33.485Z,96.31
2023-03-03T07:51:33.496Z,96.31
2023-03-03T07:52:33.465Z,96.00
2023-03-03T07:53:33.447Z,96.21
2023-03-03T07:54:33.468Z,96.31
2023-03-03T07:55:33.432Z,96.31
2023-03-03T07:56:33.466Z,96.31
2023-03-03T07:57:33.437Z,96.31
2023-03-03T07:58:33.398Z,96.31
2023-03-03T07:59:33.388Z,96.21
2023-03-03T08:00:33.439Z,96.21
2023-03-03T08:01:33.370Z,96.21
2023-03-03T08:02:33.395Z,96.31
2023-03-03T08:03:33.373Z,96.21
2023-03-03T08:04:33.437Z,96.11
2023-03-03T08:05:33.392Z,95.95
2023-03-03T08:06:33.308Z,96.06
2023-03-03T08:07:33.381Z,96.06
2023-03-03T08:08:33.345Z,95.85
2023-03-03T08:09:33.279Z,95.64
2023-03-03T08:10:33.892Z,95.75
2023-03-03T08:11:33.255Z,95.85
2023-03-03T08:12:33.273Z,95.85
2023-03-03T08:13:33.264Z,95.64
2023-03-03T08:14:33.242Z,95.64
2023-03-03T08:15:33.373Z,95.43
2023-03-03T08:16:33.209Z,95.54
2023-03-03T08:17:33.196Z,95.43
2023-03-03T08:18:33.183Z,95.54
2023-03-03T08:19:33.201Z,95.54
2023-03-03T08:20:33.184Z,95.43
2023-03-03T08:21:33.257Z,95.43
2023-03-03T08:22:33.161Z,95.23
2023-03-03T08:23:33.169Z,95.33
2023-03-03T08:24:33.126Z,95.54
2023-03-03T08:25:33.108Z,95.43
2023-03-03T08:26:33.089Z,95.33
2023-03-03T08:27:33.113Z,95.43
2023-03-03T08:28:33.074Z,95.23
2023-03-03T08:29:33.084Z,95.33
2023-03-03T08:30:33.046Z,95.23
2023-03-03T08:31:41.347Z,95.33
2023-03-03T08:32:34.246Z,95.23
2023-03-03T08:33:33.061Z,95.29
2023-03-03T08:34:32.994Z,95.12
2023-03-03T08:35:33.101Z,95.08
2023-03-03T08:36:34.700Z,95.29
2023-03-03T08:37:32.991Z,95.18
2023-03-03T08:38:32.969Z,94.76
2023-03-03T08:39:33.076Z,94.87
2023-03-03T08:40:32.957Z,94.87
2023-03-03T08:41:32.973Z,94.76
2023-03-03T08:42:32.912Z,94.56
2023-03-03T08:43:33.007Z,94.76
2023-03-03T08:44:32.937Z,94.62
2023-03-03T08:45:32.883Z,94.41
2023-03-03T08:46:32.895Z,94.24
2023-03-03T08:47:32.893Z,94.14
2023-03-03T08:48:32.852Z,94.20
2023-03-03T08:49:32.876Z,94.31
2023-03-03T08:50:32.862Z,94.20
2023-03-03T08:51:32.829Z,93.89
2023-03-03T08:52:32.918Z,94.06
2023-03-03T08:53:32.808Z,92.85
2023-03-03T08:54:32.830Z,92.74
2023-03-03T08:55:32.840Z,92.47
2023-03-03T08:56:32.776Z,92.74
2023-03-03T08:57:32.784Z,92.64
2023-03-03T08:58:35.445Z,92.74
2023-03-03T08:59:32.740Z,92.64
2023-03-03T09:00:32.751Z,93.05
2023-03-03T09:01:32.908Z,93.12
2023-03-03T09:02:32.718Z,92.80
2023-03-03T09:03:32.727Z,92.60
2023-03-03T09:04:32.727Z,92.39
2023-03-03T09:05:32.723Z,92.08
2023-03-03T09:06:32.657Z,92.18
2023-03-03T09:07:32.650Z,92.14
2023-03-03T09:08:32.687Z,91.93
2023-03-03T09:09:32.667Z,91.93
2023-03-03T09:10:32.617Z,92.03
2023-03-03T09:11:32.716Z,91.83
2023-03-03T09:12:32.611Z,91.52
2023-03-03T09:13:32.594Z,91.31
2023-03-03T09:14:32.600Z,91.31
2023-03-03T09:15:32.591Z,91.31
2023-03-03T09:16:47.357Z,91.00
2023-03-03T09:17:32.552Z,90.95
2023-03-03T09:18:32.550Z,90.64
2023-03-03T09:19:32.608Z,90.75
2023-03-03T09:20:32.600Z,90.64
2023-03-03T09:21:39.588Z,90.44
2023-03-03T09:22:32.522Z,90.33
2023-03-03T09:23:32.529Z,90.02
2023-03-03T09:24:32.487Z,89.75
2023-03-03T09:25:32.471Z,90.06
2023-03-03T09:26:32.471Z,90.16
2023-03-03T09:27:32.502Z,90.26
2023-03-03T09:28:32.450Z,90.33
2023-03-03T09:29:32.482Z,90.16
2023-03-03T09:30:32.427Z,90.37
2023-03-03T09:31:32.485Z,90.47
2023-03-03T09:32:32.461Z,90.69
2023-03-03T09:33:32.395Z,90.47
2023-03-03T09:34:32.440Z,90.58
2023-03-03T09:35:32.433Z,90.58
2023-03-03T09:36:32.357Z,91.20
2023-03-03T09:37:32.430Z,91.52
2023-03-03T09:38:32.337Z,91.31
2023-03-03T09:39:32.376Z,91.52
2023-03-03T09:40:32.340Z,91.41
2023-03-03T09:41:32.314Z,91.52
2023-03-03T09:42:32.341Z,91.41
2023-03-03T09:43:32.321Z,91.16
2023-03-03T09:44:32.416Z,90.69
2023-03-03T09:45:32.259Z,91.04
2023-03-03T09:46:32.377Z,91.77
2023-03-03T09:47:32.295Z,92.08
2023-03-03T09:48:32.241Z,91.97
2023-03-03T09:49:32.290Z,92.24
2023-03-03T09:50:32.293Z,92.24
2023-03-03T09:51:32.196Z,92.20
2023-03-03T09:52:32.254Z,91.89
2023-03-03T09:53:32.171Z,91.68
2023-03-03T09:54:32.245Z,91.74
2023-03-03T09:55:32.198Z,90.64
2023-03-03T09:56:32.272Z,90.75
2023-03-03T09:57:32.140Z,90.60
2023-03-03T09:58:32.191Z,90.50
2023-03-03T09:59:32.356Z,89.56
2023-03-03T10:00:32.128Z,89.81
2023-03-03T10:01:32.110Z,89.98
2023-03-03T10:02:32.090Z,90.08
2023-03-03T10:03:32.170Z,90.08
2023-03-03T10:04:32.106Z,89.73
2023-03-03T10:05:32.055Z,89.83
2023-03-03T10:06:32.045Z,89.58
2023-03-03T10:07:32.022Z,89.06
2023-03-03T10:08:32.033Z,88.44
2023-03-03T10:09:32.059Z,88.44
2023-03-03T10:10:31.988Z,87.78
2023-03-03T10:11:31.992Z,87.30
2023-03-03T10:12:32.010Z,87.26
2023-03-03T10:13:32.164Z,87.16
2023-03-03T10:14:31.964Z,86.74
2023-03-03T10:15:31.980Z,86.29
2023-03-03T10:16:36.942Z,86.39
2023-03-03T10:17:31.970Z,85.87
2023-03-03T10:18:33.326Z,84.73
2023-03-03T10:19:31.919Z,85.46
2023-03-03T10:20:40.485Z,84.48
2023-03-03T10:21:32.904Z,84.11
2023-03-03T10:22:31.882Z,84.52
2023-03-03T10:23:31.883Z,84.38
2023-03-03T10:24:31.905Z,83.86
2023-03-03T10:25:32.023Z,83.38
2023-03-03T10:26:44.402Z,83.59
2023-03-03T10:27:32.821Z,84.21
2023-03-03T10:28:31.837Z,84.31
2023-03-03T10:29:31.933Z,83.48
2023-03-03T10:30:42.554Z,83.90
2023-03-03T10:31:32.863Z,84.11
2023-03-03T10:32:32.093Z,83.97
2023-03-03T10:33:31.884Z,83.93
2023-03-03T10:34:31.770Z,82.68
2023-03-03T10:35:31.761Z,82.95
2023-03-03T10:36:31.781Z,81.99
2023-03-03T10:37:31.777Z,81.57
2023-03-03T10:38:32.074Z,80.91
2023-03-03T10:39:31.702Z,80.29
2023-03-03T10:40:31.724Z,79.57
2023-03-03T10:41:31.766Z,79.91
2023-03-03T10:42:31.670Z,80.57
2023-03-03T10:43:32.654Z,80.68
2023-03-03T10:44:31.633Z,81.20
2023-03-03T10:45:31.633Z,81.82
2023-03-03T10:46:31.627Z,82.29
2023-03-03T10:47:31.624Z,81.47
2023-03-03T10:48:31.611Z,80.91
2023-03-03T10:49:31.627Z,79.95
2023-03-03T10:50:31.589Z,81.09
2023-03-03T10:51:31.579Z,80.95
2023-03-03T10:52:31.617Z,80.43
2023-03-03T10:53:31.775Z,80.19
2023-03-03T10:54:31.512Z,79.36
2023-03-03T10:55:31.538Z,78.22
2023-03-03T10:56:35.384Z,78.74
2023-03-03T10:57:32.483Z,78.64
2023-03-03T10:58:31.555Z,78.88
2023-03-03T10:59:31.491Z,80.16
2023-03-03T11:00:31.930Z,80.36
2023-03-03T11:01:31.552Z,80.68
2023-03-03T11:02:31.511Z,80.54
2023-03-03T11:03:31.482Z,80.29
2023-03-03T11:04:31.462Z,79.19
2023-03-03T11:05:31.408Z,79.67
2023-03-03T11:06:31.403Z,79.19
2023-03-03T11:07:31.413Z,79.60
2023-03-03T11:08:31.417Z,80.02
2023-03-03T11:09:31.389Z,79.71
2023-03-03T11:10:31.380Z,79.57
2023-03-03T11:11:31.341Z,79.36
2023-03-03T11:12:31.318Z,78.95
2023-03-03T11:13:31.357Z,78.74
2023-03-03T11:14:31.529Z,78.43
2023-03-03T11:15:31.355Z,78.53
2023-03-03T11:16:35.975Z,78.57
2023-03-03T11:17:31.279Z,79.19
2023-03-03T11:18:31.358Z,79.26
2023-03-03T11:19:31.282Z,78.22
2023-03-03T11:20:31.257Z,77.74
2023-03-03T11:21:31.229Z,78.78
2023-03-03T11:22:31.276Z,79.91
2023-03-03T11:23:31.216Z,79.71
2023-03-03T11:24:31.332Z,78.88
2023-03-03T11:25:31.249Z,78.74
2023-03-03T11:26:31.188Z,78.50
2023-03-03T11:27:31.203Z,77.36
2023-03-03T11:28:31.920Z,76.74
2023-03-03T11:29:31.149Z,77.19
2023-03-03T11:30:31.393Z,78.33
2023-03-03T11:31:32.057Z,78.16
2023-03-03T11:32:31.167Z,78.47
2023-03-03T11:33:31.436Z,79.23
2023-03-03T11:34:31.385Z,79.95
2023-03-03T11:35:31.305Z,79.85
2023-03-03T11:36:32.814Z,80.05
2023-03-03T11:37:31.243Z,80.05
2023-03-03T11:38:31.204Z,80.71
2023-03-03T11:39:31.045Z,80.68
2023-03-03T11:40:31.324Z,80.47
2023-03-03T11:41:31.193Z,80.12
2023-03-03T11:42:31.034Z,80.12
2023-03-03T11:43:36.976Z,80.12
2023-03-03T11:44:32.041Z,78.95
2023-03-03T11:45:31.007Z,78.95
2023-03-03T11:46:31.058Z,78.60
2023-03-03T11:47:31.978Z,78.22
2023-03-03T11:48:30.940Z,78.53
2023-03-03T11:49:31.087Z,78.81
2023-03-03T11:50:31.090Z,78.36
2023-03-03T11:51:30.955Z,77.12
2023-03-03T11:52:30.943Z,76.81
2023-03-03T11:53:30.887Z,76.81
2023-03-03T11:54:30.897Z,77.08
2023-03-03T11:55:30.949Z,76.26
2023-03-03T11:56:30.858Z,76.05
2023-03-03T11:57:30.905Z,76.05
2023-03-03T11:58:30.920Z,76.15
2023-03-03T11:59:30.830Z,76.46
2023-03-03T12:00:30.821Z,75.78
2023-03-03T12:01:30.853Z,76.29
2023-03-03T12:02:30.961Z,76.32
2023-03-03T12:03:30.826Z,76.95
2023-03-03T12:04:30.826Z,77.77
2023-03-03T12:05:30.783Z,77.26
2023-03-03T12:06:30.781Z,77.98
2023-03-03T12:07:30.758Z,78.08
2023-03-03T12:08:30.759Z,78.39
2023-03-03T12:09:30.735Z,77.98
2023-03-03T12:10:30.722Z,77.98
2023-03-03T12:11:30.725Z,77.84
2023-03-03T12:12:30.770Z,77.94
2023-03-03T12:13:30.680Z,77.91
2023-03-03T12:14:30.687Z,77.19
2023-03-03T12:15:30.685Z,76.26
2023-03-03T12:16:30.751Z,77.12
2023-03-03T12:17:30.655Z,77.33
2023-03-03T12:18:30.681Z,76.84
2023-03-03T12:19:30.622Z,78.22
2023-03-03T12:20:30.621Z,79.05
2023-03-03T12:21:30.588Z,78.43
2023-03-03T12:22:30.610Z,78.85
2023-03-03T12:23:30.704Z,78.53
2023-03-03T12:24:30.557Z,79.71
2023-03-03T12:25:30.628Z,79.88
2023-03-03T12:26:30.546Z,79.67
2023-03-03T12:27:30.535Z,79.60
2023-03-03T12:28:30.593Z,80.40
2023-03-03T12:29:30.546Z,79.36
2023-03-03T12:30:30.588Z,79.91
2023-03-03T12:31:30.596Z,80.43
2023-03-03T12:32:30.585Z,80.85
2023-03-03T12:33:30.529Z,80.74
2023-03-03T12:34:30.451Z,81.37
2023-03-03T12:35:30.579Z,81.57
2023-03-03T12:36:30.430Z,80.95
2023-03-03T12:37:30.430Z,80.81
2023-03-03T12:38:30.411Z,79.77
2023-03-03T12:39:35.129Z,79.98
2023-03-03T12:40:31.418Z,80.05
2023-03-03T12:41:30.388Z,79.57
2023-03-03T12:42:30.408Z,79.88
2023-03-03T12:43:30.908Z,80.19
2023-03-03T12:44:30.373Z,80.29
2023-03-03T12:45:30.408Z,80.19
2023-03-03T12:46:30.420Z,79.43
2023-03-03T12:47:30.349Z,79.43
2023-03-03T12:48:30.396Z,79.74
2023-03-03T12:49:34.606Z,78.81
2023-03-03T12:50:31.292Z,78.70
2023-03-03T12:51:30.305Z,79.39
2023-03-03T12:52:30.277Z,78.91